Belchatow, Poland
Current Conditions -  °F | °C
As of 11:30 AM on Sunday 26 Oct 2014 (Local Time) from EPLL Reporting Station
Broken Clouds Broken Clouds  
Wind Chill: 42°   Ceiling: 2300
Heat Index: 46°   Visibility: 5mi
Dew Point: 39°   Wind: 8mph
Humidity: 76%   Direction: 180°S
Pressure: 30.39"   Gusts: NA
Location:  51.37°N, 19.36°E
Report Text: EPLL 260930Z 18007KT 8000 FEW016 BKN023 08/04 Q1029
Loading
Personal Weather Stations






























Interactive Weather Map
Tropical Storm Tracking
New forecast layout! Learn more

10-Day Weather Forecast

Advertisements
Track Severe Weather on mobile